createdAt,value
2022-08-16T00:00:47.630Z,93975.63
2022-08-16T00:03:20.688Z,93973.13
2022-08-16T00:05:57.763Z,93978.44
2022-08-16T00:17:56.033Z,93963.44
2022-08-16T00:29:47.768Z,93985.47
2022-08-16T00:41:30.496Z,93991.06
2022-08-16T00:44:12.461Z,94002.03
2022-08-16T00:46:52.617Z,94003.41
2022-08-16T00:49:21.921Z,94005.16
2022-08-16T00:51:55.184Z,94006.84
2022-08-16T00:58:58.059Z,94014.03
2022-08-16T01:01:30.241Z,94012.81
2022-08-16T01:08:36.516Z,94010.16
2022-08-16T01:20:24.392Z,94036.28
2022-08-16T01:23:09.258Z,94033.47
2022-08-16T01:30:20.129Z,94040.03
2022-08-16T01:33:01.862Z,94034.41
2022-08-16T01:35:39.662Z,94036.16
2022-08-16T01:38:25.536Z,94036.34
2022-08-16T01:41:01.902Z,94032.59
2022-08-16T01:48:05.325Z,94041.47
2022-08-16T02:05:30.764Z,94095.31
2022-08-16T02:07:59.696Z,94100.34
2022-08-16T02:15:01.056Z,94115.69
2022-08-16T02:17:29.705Z,94109.88
2022-08-16T02:24:50.975Z,94087.22
2022-08-16T02:27:20.849Z,94082.34
2022-08-16T02:29:49.360Z,94095.19
2022-08-16T02:36:50.673Z,94098.31
2022-08-16T02:39:20.353Z,94098.78
2022-08-16T02:46:17.960Z,65556.66
2022-08-16T02:48:49.191Z,65556.66
2022-08-16T02:51:18.012Z,65556.66
2022-08-16T02:53:49.378Z,65556.66
2022-08-16T02:56:20.390Z,65556.66
2022-08-16T02:58:52.244Z,65556.66
2022-08-16T03:01:47.142Z,65556.66
2022-08-16T03:09:13.790Z,65556.66
2022-08-16T03:16:37.635Z,65556.66
2022-08-16T03:19:09.445Z,65556.66
2022-08-16T03:21:38.855Z,65556.66
2022-08-16T03:24:29.260Z,65556.66
2022-08-16T03:26:59.787Z,65556.66
2022-08-16T03:29:34.862Z,65556.66
2022-08-16T03:36:42.445Z,65556.66
2022-08-16T03:39:15.178Z,65556.66
2022-08-16T03:41:50.661Z,65556.66
2022-08-16T03:49:12.493Z,65556.66
2022-08-16T03:51:44.514Z,65556.66
2022-08-16T03:54:13.097Z,65556.66
2022-08-16T03:56:56.642Z,65556.66
2022-08-16T03:59:51.633Z,65556.66
2022-08-16T04:02:22.340Z,65556.66
2022-08-16T04:04:51.609Z,65556.66
2022-08-16T04:07:21.860Z,65556.66
2022-08-16T04:09:53.292Z,65556.66
2022-08-16T04:12:53.094Z,65556.66
2022-08-16T04:16:49.669Z,65556.66
2022-08-16T04:19:19.921Z,65556.66
2022-08-16T04:21:50.669Z,65556.66
2022-08-16T04:29:44.150Z,65556.66
2022-08-16T04:32:15.135Z,65556.66
2022-08-16T04:34:43.719Z,65556.66
2022-08-16T04:37:13.672Z,65556.66
2022-08-16T04:48:49.648Z,65556.66
2022-08-16T04:51:19.839Z,65556.66
2022-08-16T04:54:43.801Z,65556.66
2022-08-16T04:57:57.468Z,65556.66
2022-08-16T05:10:01.233Z,65556.66
2022-08-16T05:12:30.597Z,65556.66
2022-08-16T05:15:02.782Z,65556.66
2022-08-16T05:17:32.644Z,65556.66
2022-08-16T05:20:01.436Z,65556.66
2022-08-16T05:27:28.477Z,65556.66
2022-08-16T05:30:01.182Z,65556.66
2022-08-16T05:32:34.259Z,65556.66
2022-08-16T05:44:26.184Z,65556.66
2022-08-16T05:47:23.681Z,65556.66
2022-08-16T05:54:47.656Z,65556.66
2022-08-16T05:57:27.549Z,65556.66
2022-08-16T06:04:36.291Z,65556.66
2022-08-16T06:07:09.072Z,65556.66
2022-08-16T06:14:20.705Z,65556.66
2022-08-16T06:16:50.693Z,65556.66
2022-08-16T06:19:19.675Z,65556.66
2022-08-16T06:26:21.153Z,65556.66
2022-08-16T06:28:49.870Z,65556.66
2022-08-16T06:32:54.188Z,65556.66
2022-08-16T06:39:56.038Z,65556.66
2022-08-16T06:42:26.174Z,65556.66
2022-08-16T06:49:27.892Z,65556.66
2022-08-16T06:52:02.726Z,65556.66
2022-08-16T06:54:32.480Z,65556.66
2022-08-16T15:11:12.659Z,93926.53
2022-08-16T15:13:42.132Z,93929.97
2022-08-16T15:16:10.591Z,93928.41
2022-08-16T15:18:39.534Z,93923.75
2022-08-16T15:21:08.752Z,93927.59
2022-08-16T15:23:40.370Z,93927.53
2022-08-16T15:26:18.856Z,93927.09
2022-08-16T15:29:00.407Z,93939.00
2022-08-16T15:31:28.913Z,93936.25
2022-08-16T15:33:58.379Z,93932.72
2022-08-16T15:36:28.004Z,93935.75
2022-08-16T15:39:06.900Z,93936.84
2022-08-16T15:42:05.530Z,93933.31
2022-08-16T15:44:44.865Z,93937.50
2022-08-16T15:47:19.904Z,93934.44
2022-08-16T15:49:53.214Z,93936.34
2022-08-16T15:52:30.475Z,93934.72
2022-08-16T15:55:13.279Z,93939.31
2022-08-16T15:57:51.606Z,93934.69
2022-08-16T16:00:21.180Z,93939.66
2022-08-16T16:02:50.628Z,93943.59
2022-08-16T16:05:20.327Z,93942.34
2022-08-16T16:07:56.858Z,93938.13
2022-08-16T16:10:54.557Z,93943.03
2022-08-16T16:13:25.380Z,93945.63
2022-08-16T16:15:56.715Z,93945.59
2022-08-16T16:18:50.225Z,93949.78
2022-08-16T16:21:19.960Z,93950.84
2022-08-16T16:23:54.915Z,93952.72
2022-08-16T16:26:26.799Z,93948.09
2022-08-16T16:29:08.291Z,93948.81
2022-08-16T16:31:59.026Z,93945.72
2022-08-16T16:34:32.115Z,93943.25
2022-08-16T16:37:01.026Z,93947.78
2022-08-16T16:39:32.485Z,93950.00
2022-08-16T16:42:01.264Z,93946.16
2022-08-16T16:44:36.430Z,93953.53
2022-08-16T16:47:06.943Z,93960.31
2022-08-16T16:49:41.706Z,93952.91
2022-08-16T16:52:11.931Z,93954.00
2022-08-16T16:55:00.197Z,93955.13
2022-08-16T16:57:47.467Z,93959.75
2022-08-16T17:00:29.871Z,93965.84
2022-08-16T17:02:59.386Z,93962.31
2022-08-16T17:05:32.457Z,93965.75
2022-08-16T17:08:02.528Z,93962.97
2022-08-16T17:10:46.649Z,93964.47
2022-08-16T17:13:17.757Z,93958.59
2022-08-16T17:15:52.387Z,93967.38
2022-08-16T17:19:16.139Z,93974.22
2022-08-16T17:21:10.393Z,93969.88
2022-08-16T17:23:58.027Z,93976.72
2022-08-16T17:26:30.028Z,93976.66
2022-08-16T17:29:10.621Z,93976.44
2022-08-16T17:31:43.464Z,93983.25
2022-08-16T17:34:28.607Z,93983.56
2022-08-16T17:37:08.084Z,93980.53
2022-08-16T17:39:53.414Z,93973.69
2022-08-16T17:42:26.850Z,93988.00
2022-08-16T17:44:55.648Z,93998.88
2022-08-16T17:47:25.972Z,93998.09
2022-08-16T17:49:54.616Z,93998.41
2022-08-16T17:52:23.465Z,94001.53
2022-08-16T17:54:52.033Z,93999.97
2022-08-16T17:57:20.598Z,94009.25
2022-08-16T17:59:50.187Z,94006.22
2022-08-16T18:02:44.065Z,94013.88
2022-08-16T18:05:16.169Z,94023.44
2022-08-16T18:07:46.017Z,94026.78
2022-08-16T18:10:32.478Z,94021.97
2022-08-16T18:13:02.866Z,94027.69
2022-08-16T18:15:32.759Z,94029.72
2022-08-16T18:18:03.082Z,94033.03
2022-08-16T18:20:48.956Z,94041.97
2022-08-16T18:23:21.916Z,94048.88
2022-08-16T18:25:56.217Z,94042.84
2022-08-16T18:28:25.953Z,94043.53
2022-08-16T18:31:00.303Z,94055.22
2022-08-16T18:33:31.502Z,94056.31
2022-08-16T18:36:00.965Z,94065.34
2022-08-16T18:38:30.261Z,94062.66
2022-08-16T18:40:58.913Z,94061.03
2022-08-16T18:44:23.089Z,94064.81
2022-08-16T18:46:16.299Z,94070.75
2022-08-16T18:48:46.316Z,94071.03
2022-08-16T18:51:21.571Z,94069.75
2022-08-16T18:53:53.551Z,94076.66
2022-08-16T18:56:22.219Z,94082.38
2022-08-16T18:58:50.777Z,94088.66
2022-08-16T19:01:19.513Z,94096.22
2022-08-16T19:03:50.255Z,94087.53
2022-08-16T19:06:19.806Z,94096.44
2022-08-16T19:08:48.642Z,94103.41
2022-08-16T19:11:23.426Z,94112.56
2022-08-16T19:13:52.945Z,94119.63
2022-08-16T19:16:23.625Z,94122.88
2022-08-16T19:18:54.232Z,94117.13
2022-08-16T19:21:22.994Z,94116.16
2022-08-16T19:23:52.925Z,94127.63
2022-08-16T19:26:26.048Z,94127.28
2022-08-16T19:28:59.597Z,94121.91
2022-08-16T19:31:33.317Z,94119.38
2022-08-16T19:34:04.558Z,94125.50
2022-08-16T19:36:39.698Z,94126.53
2022-08-16T19:39:13.726Z,94127.81
2022-08-16T19:41:46.224Z,94126.03
2022-08-16T19:44:22.479Z,94125.38
2022-08-16T19:46:51.604Z,94126.31
2022-08-16T19:49:21.936Z,94121.56
2022-08-16T19:51:51.683Z,94127.47
2022-08-16T19:54:20.458Z,94124.44
2022-08-16T19:56:49.235Z,94115.75
2022-08-16T19:59:19.837Z,94120.78
2022-08-16T20:01:52.051Z,94113.69
2022-08-16T20:04:26.014Z,94127.81
2022-08-16T20:06:56.286Z,94132.16
2022-08-16T20:09:26.849Z,94129.97
2022-08-16T20:11:55.934Z,94134.16
2022-08-16T20:14:26.617Z,94141.41
2022-08-16T20:17:18.923Z,94136.50
2022-08-16T20:19:49.081Z,94136.06
2022-08-16T20:22:52.587Z,94137.63
2022-08-16T20:25:28.372Z,94144.06
2022-08-16T20:27:57.550Z,94141.09
2022-08-16T20:30:28.165Z,94140.81
2022-08-16T20:32:57.810Z,94132.00
2022-08-16T20:35:29.842Z,94141.59
2022-08-16T20:38:00.155Z,94134.41
2022-08-16T20:40:34.365Z,94135.56
2022-08-16T20:43:09.481Z,94139.72
2022-08-16T20:45:40.510Z,94138.81
2022-08-16T20:48:09.909Z,94145.00
2022-08-16T20:50:41.093Z,94143.47
2022-08-16T20:53:10.505Z,94156.06
2022-08-16T20:55:41.855Z,94154.84
2022-08-16T20:58:10.575Z,94157.31
2022-08-16T21:00:39.325Z,94153.72
2022-08-16T21:03:11.554Z,94159.22
2022-08-16T21:05:43.541Z,94165.31
2022-08-16T21:08:50.347Z,94161.69
2022-08-16T21:11:14.150Z,94171.38
2022-08-16T21:13:46.216Z,94176.09
2022-08-16T21:16:16.975Z,94174.47
2022-08-16T21:18:47.963Z,94179.28
2022-08-16T21:21:19.938Z,94179.00
2022-08-16T21:23:53.827Z,94181.00
2022-08-16T21:26:24.119Z,94180.38
2022-08-16T21:28:56.104Z,94183.84
2022-08-16T21:31:27.653Z,94177.28
2022-08-16T21:33:57.914Z,94177.66
2022-08-16T21:36:35.081Z,94182.03
2022-08-16T21:39:07.714Z,94181.00
2022-08-16T21:41:41.670Z,94183.34
2022-08-16T21:44:12.888Z,94187.97
2022-08-16T21:46:43.089Z,94179.78
2022-08-16T21:49:13.325Z,94185.94
2022-08-16T21:51:44.506Z,94184.22
2022-08-16T21:54:17.849Z,94184.69
2022-08-16T21:56:47.824Z,94186.59
2022-08-16T21:59:19.360Z,94181.59
2022-08-16T22:01:49.935Z,94179.56
2022-08-16T22:04:36.663Z,94179.72
2022-08-16T22:07:13.457Z,94179.13
2022-08-16T22:09:42.662Z,94167.84
2022-08-16T22:12:21.486Z,94171.63
2022-08-16T22:14:55.070Z,94168.47
2022-08-16T22:17:24.328Z,94168.16
2022-08-16T22:19:54.204Z,94168.63
2022-08-16T22:22:25.788Z,94166.72
2022-08-16T22:25:05.907Z,94167.06
2022-08-16T22:27:35.414Z,94166.59
2022-08-16T22:30:04.560Z,94175.06
2022-08-16T22:32:41.192Z,94177.41
2022-08-16T22:35:14.196Z,94171.63
2022-08-16T22:38:47.767Z,94178.50
2022-08-16T22:40:33.133Z,94175.38
2022-08-16T22:43:01.777Z,94172.56
2022-08-16T22:45:30.271Z,94175.84
2022-08-16T22:48:00.821Z,94167.06
2022-08-16T22:50:30.693Z,94171.94
2022-08-16T22:53:01.052Z,94167.53
2022-08-16T22:55:31.638Z,94169.59
2022-08-16T22:58:00.254Z,94163.78
2022-08-16T23:00:33.478Z,94173.94
2022-08-16T23:03:05.376Z,94171.13
2022-08-16T23:05:38.802Z,94172.53
2022-08-16T23:08:15.418Z,94163.47
2022-08-16T23:11:01.094Z,94168.00
2022-08-16T23:13:30.515Z,94169.72
2022-08-16T23:16:02.474Z,94165.63
2022-08-16T23:18:41.068Z,94159.22
2022-08-16T23:21:12.160Z,94156.88
2022-08-16T23:23:42.494Z,94160.91
2022-08-16T23:26:46.266Z,94162.00
2022-08-16T23:29:00.555Z,94158.25
2022-08-16T23:31:29.251Z,94154.47
2022-08-16T23:33:58.071Z,94157.28
2022-08-16T23:36:26.756Z,94153.72
2022-08-16T23:38:56.918Z,94158.34
2022-08-16T23:41:25.714Z,94150.88
2022-08-16T23:43:54.599Z,94158.84
2022-08-16T23:46:23.320Z,94150.22
2022-08-16T23:49:59.217Z,94139.25
2022-08-16T23:51:41.050Z,94153.59
2022-08-16T23:54:11.685Z,94152.06
2022-08-16T23:56:40.962Z,94141.09
2022-08-16T23:59:09.808Z,94146.72
